Humidity-temperature Sensor

Selected Measurement Type: Relative Humidity

 
Relative Humidity [%]     6 entries per hour
Showing data from 7/26/2020 (00:00:00 Z) to 7/23/2020 (00:01:00 Z)
Previous Next [ Day | 3-Days | 7-Days ]
First Last
Prev [ Day | 3-Days | 7-Days ] Next
First Last

Start Time:     :
End Time:     :     
Time (in GMT) :00 :50 :40 :30 :20 :10
Previous Next [ Day | 3-Days | 7-Days ]
First Last
Prev [ Day | 3-Days | 7-Days ] Next
First Last


123 => good data
MM => data is determined as missing
-- => data not received/configured
Back to Top Back to Top
7/26/2020 00:00 to 23:10 82.89 82.50 82.16 80.81 83.08 81.48
7/25/2020 23:00 to 22:10 82.00 81.41 80.85 80.94 80.52 81.37
7/25/2020 22:00 to 21:10 80.94 79.84 80.81 81.33 81.33 81.21
7/25/2020 21:00 to 20:10 81.14 80.02 80.58 79.73 79.50 80.67
7/25/2020 20:00 to 19:10 81.62 81.58 81.25 80.94 80.19 81.29
7/25/2020 19:00 to 18:10 81.66 81.12 80.54 81.23 80.96 81.46
7/25/2020 18:00 to 17:10 81.46 81.02 81.33 81.02 81.21 80.46
7/25/2020 17:00 to 16:10 80.06 80.50 81.66 81.44 80.94 81.02
7/25/2020 16:00 to 15:10 80.13 79.73 80.02 79.79 78.82 79.81
7/25/2020 15:00 to 14:10 79.50 79.30 77.99 78.61 79.73 79.67
7/25/2020 14:00 to 13:10 79.27 80.31 79.73 80.27 80.06 79.61
7/25/2020 13:00 to 12:10 79.40 79.92 79.27 78.90 78.17 77.67
7/25/2020 12:00 to 11:10 77.99 77.49 76.70 76.84 77.92 77.01
7/25/2020 11:00 to 10:10 78.32 76.51 76.07 76.86 76.30 76.01
7/25/2020 10:00 to 9:10 75.16 74.22 74.99 74.91 75.76 77.09
7/25/2020 09:00 to 8:10 78.01 76.88 76.95 77.65 77.26 78.61
7/25/2020 08:00 to 7:10 77.03 77.45 77.53 78.67 79.36 80.11
7/25/2020 07:00 to 6:10 81.41 83.68 83.83 84.10 82.56 83.08
7/25/2020 06:00 to 5:10 82.16 82.20 82.39 82.10 82.52 82.31
7/25/2020 05:00 to 4:10 81.62 82.06 81.41 81.73 82.12 81.21
7/25/2020 04:00 to 3:10 82.10 81.33 80.08 80.06 80.13 79.21
7/25/2020 03:00 to 2:10 78.01 79.44 81.04 81.91 82.70 81.58
7/25/2020 02:00 to 1:10 82.50 82.70 80.73 77.65 77.63 80.25
7/25/2020 01:00 to 0:10 79.46 78.94 79.79 78.03 78.53 79.23
7/25/2020 00:00 to 23:10 78.36 78.65 78.28 78.26 77.34 78.38
7/24/2020 23:00 to 22:10 78.53 76.70 75.91 75.43 75.87 76.61
7/24/2020 22:00 to 21:10 77.57 76.88 77.55 78.55 77.34 75.62
7/24/2020 21:00 to 20:10 77.01 75.20 73.81 76.88 75.24 73.70
7/24/2020 20:00 to 19:10 73.43 73.89 74.64 75.06 75.99 75.87
7/24/2020 19:00 to 18:10 76.97 77.40 74.83 74.43 75.45 76.70
7/24/2020 18:00 to 17:10 78.03 78.92 78.19 76.93 78.42 79.05
7/24/2020 17:00 to 16:10 79.46 80.08 80.06 80.96 81.06 79.13
7/24/2020 16:00 to 15:10 80.85 80.31 80.38 81.58 78.32 79.30
7/24/2020 15:00 to 14:10 78.30 79.84 78.11 79.00 78.94 77.99
7/24/2020 14:00 to 13:10 78.15 78.92 79.48 78.59 80.08 81.62
7/24/2020 13:00 to 12:10 80.98 80.94 82.25 81.89 80.85 81.87
7/24/2020 12:00 to 11:10 82.58 82.10 82.14 82.31 82.39 82.43
7/24/2020 11:00 to 10:10 83.85 82.70 82.08 80.31 81.04 79.67
7/24/2020 10:00 to 9:10 82.50 81.31 80.73 82.18 80.69 79.94
7/24/2020 09:00 to 8:10 79.57 78.53 80.06 81.48 80.79 81.71
7/24/2020 08:00 to 7:10 81.46 80.77 80.27 81.08 80.54 82.18
7/24/2020 07:00 to 6:10 81.69 81.14 81.71 81.77 81.71 80.81
7/24/2020 06:00 to 5:10 81.89 81.89 81.66 81.73 80.98 79.75
7/24/2020 05:00 to 4:10 78.71 79.61 79.30 79.15 80.21 81.35
7/24/2020 04:00 to 3:10 79.69 78.15 78.94 78.96 79.92 81.23
7/24/2020 03:00 to 2:10 80.90 80.11 80.94 81.66 83.85 83.18
7/24/2020 02:00 to 1:10 83.70 80.33 77.74 80.60 82.35 80.83
7/24/2020 01:00 to 0:10 78.59 84.37 83.51 83.78 84.01 84.39
7/24/2020 00:00 to 23:10 84.30 85.80 86.59 83.76 85.59 89.69
7/23/2020 23:00 to 22:10 89.19 86.44 85.18 80.79 79.65 76.14
7/23/2020 22:00 to 21:10 79.02 78.71 83.64 86.07 88.61 84.95
7/23/2020 21:00 to 20:10 81.87 81.31 82.81 80.71 81.48 83.37
7/23/2020 20:00 to 19:10 85.90 86.84 87.13 87.17 87.03 85.76
7/23/2020 19:00 to 18:10 83.91 82.83 82.25 82.77 84.57 85.18
7/23/2020 18:00 to 17:10 85.28 85.11 83.81 85.97 87.13 86.84
7/23/2020 17:00 to 16:10 87.42 86.88 86.84 84.53 79.61 79.90
7/23/2020 16:00 to 15:10 80.60 85.59 86.01 86.49 86.13 85.53
7/23/2020 15:00 to 14:10 85.05 85.70 86.05 86.38 85.49 84.43
7/23/2020 14:00 to 13:10 80.19 82.68 85.26 83.81 82.56 81.52
7/23/2020 13:00 to 12:10 79.50 79.02 76.41 75.60 75.97 77.03
7/23/2020 12:00 to 11:10 78.30 78.48 78.94 80.50 80.81 81.58
7/23/2020 11:00 to 10:10 81.62 81.39 80.36 80.94 82.54 81.96
7/23/2020 10:00 to 9:10 82.10 82.91 82.35 82.20 82.16 83.47
7/23/2020 09:00 to 8:10 83.62 82.35 82.95 82.08 81.23 82.85
7/23/2020 08:00 to 7:10 82.25 82.75 80.77 79.48 80.13 80.21
7/23/2020 07:00 to 6:10 80.94 80.77 82.16 80.85 81.73 81.21
7/23/2020 06:00 to 5:10 81.08 82.62 83.12 83.97 83.39 82.43
7/23/2020 05:00 to 4:10 81.98 83.08 83.06 85.84 85.97 86.82
7/23/2020 04:00 to 3:10 86.88 84.28 83.49 84.24 84.72 83.60
7/23/2020 03:00 to 2:10 84.16 87.15 87.59 84.97 86.78 87.28
7/23/2020 02:00 to 1:10 86.42 86.26 86.24 85.11 79.40 79.38
7/23/2020 01:00 to 0:10 79.84 78.67 79.54 77.55 78.05 78.03